createdAt,value
2023-02-27T00:02:27.555Z,83.42
2023-02-27T00:05:28.503Z,83.52
2023-02-27T00:08:28.582Z,83.33
2023-02-27T00:11:29.032Z,83.39
2023-02-27T00:14:28.545Z,83.38
2023-02-27T00:17:28.533Z,83.53
2023-02-27T00:20:30.513Z,83.11
2023-02-27T00:23:30.559Z,82.89
2023-02-27T00:26:30.553Z,82.92
2023-02-27T00:29:30.551Z,83.08
2023-02-27T00:32:30.501Z,82.65
2023-02-27T00:35:30.530Z,82.27
2023-02-27T00:38:30.491Z,82.04
2023-02-27T00:41:30.523Z,81.53
2023-02-27T00:44:30.571Z,81.86
2023-02-27T00:47:32.514Z,81.53
2023-02-27T00:50:32.547Z,81.36
2023-02-27T00:53:33.514Z,81.11
2023-02-27T00:56:33.537Z,80.50
2023-02-27T00:59:33.557Z,80.38
2023-02-27T01:02:33.508Z,80.37
2023-02-27T01:05:33.493Z,80.17
2023-02-27T01:08:33.529Z,79.74
2023-02-27T01:11:33.514Z,79.33
2023-02-27T01:14:33.565Z,79.40
2023-02-27T01:17:33.520Z,78.88
2023-02-27T01:20:33.534Z,79.02
2023-02-27T01:23:33.536Z,79.17
2023-02-27T01:26:33.555Z,78.74
2023-02-27T01:29:33.550Z,78.62
2023-02-27T01:32:33.535Z,78.16
2023-02-27T01:35:33.501Z,78.02
2023-02-27T01:38:33.529Z,78.33
2023-02-27T01:41:33.550Z,78.29
2023-02-27T01:44:33.534Z,77.98
2023-02-27T01:47:33.561Z,78.10
2023-02-27T01:50:33.503Z,78.14
2023-02-27T01:53:27.640Z,78.02
2023-02-27T01:56:33.501Z,78.03
2023-02-27T01:59:33.526Z,77.76
2023-02-27T02:02:37.563Z,78.01
2023-02-27T02:05:39.524Z,77.97
2023-02-27T02:08:40.509Z,77.62
2023-02-27T02:11:40.560Z,77.67
2023-02-27T02:14:43.529Z,76.86
2023-02-27T02:17:52.537Z,76.83
2023-02-27T02:21:13.514Z,76.82
2023-02-27T02:24:34.486Z,76.69
2023-02-27T02:27:43.507Z,76.92
2023-02-27T02:31:24.781Z,77.00
2023-02-27T02:34:43.511Z,76.87
2023-02-27T02:38:28.550Z,76.87
2023-02-27T02:41:46.540Z,77.37
2023-02-27T02:44:55.545Z,77.21
2023-02-27T02:48:12.549Z,77.59
2023-02-27T02:51:23.568Z,76.95
2023-02-27T02:54:26.532Z,76.95
2023-02-27T02:57:34.528Z,77.31
2023-02-27T03:00:39.507Z,76.89
2023-02-27T03:03:42.501Z,77.47
2023-02-27T03:06:47.503Z,77.36
2023-02-27T03:09:50.490Z,77.36
2023-02-27T03:12:53.512Z,77.69
2023-02-27T03:16:02.578Z,77.07
2023-02-27T03:19:31.515Z,77.23
2023-02-27T03:22:35.533Z,77.57
2023-02-27T03:25:36.553Z,77.28
2023-02-27T03:28:41.495Z,77.33
2023-02-27T03:31:50.602Z,77.67
2023-02-27T03:34:52.530Z,78.04
2023-02-27T03:38:01.533Z,77.99
2023-02-27T03:41:22.524Z,77.73
2023-02-27T03:44:28.532Z,78.22
2023-02-27T03:47:28.496Z,78.06
2023-02-27T03:50:29.523Z,78.10
2023-02-27T03:54:11.485Z,78.13
2023-02-27T03:57:21.520Z,78.16
2023-02-27T04:00:25.614Z,77.86
2023-02-27T04:03:25.493Z,77.75
2023-02-27T04:06:43.499Z,77.59
2023-02-27T04:10:14.520Z,77.16
2023-02-27T04:13:39.506Z,77.34
2023-02-27T04:16:57.541Z,77.11
2023-02-27T04:20:20.561Z,77.11
2023-02-27T04:23:28.499Z,76.84
2023-02-27T04:26:44.521Z,77.51
2023-02-27T04:30:24.506Z,76.79
2023-02-27T04:33:24.491Z,76.62
2023-02-27T04:37:01.505Z,76.23
2023-02-27T04:40:05.495Z,76.60
2023-02-27T04:43:07.536Z,76.69
2023-02-27T04:46:10.521Z,76.58
2023-02-27T04:49:34.495Z,76.69
2023-02-27T04:52:38.508Z,76.43
2023-02-27T04:55:41.545Z,76.34
2023-02-27T04:58:50.535Z,76.31
2023-02-27T05:02:13.643Z,76.85
2023-02-27T05:05:18.514Z,76.69
2023-02-27T05:08:32.529Z,76.75
2023-02-27T05:11:37.520Z,76.76
2023-02-27T05:15:00.536Z,76.95
2023-02-27T05:18:10.548Z,77.51
2023-02-27T05:21:35.484Z,77.17
2023-02-27T05:24:43.533Z,76.88
2023-02-27T05:27:57.545Z,76.60
2023-02-27T05:31:06.524Z,76.67
2023-02-27T05:34:21.490Z,76.54
2023-02-27T05:37:44.516Z,76.27
2023-02-27T05:40:53.487Z,75.86
2023-02-27T05:44:16.519Z,76.04
2023-02-27T05:47:21.508Z,75.38
2023-02-27T05:50:24.481Z,75.06
2023-02-27T05:53:27.511Z,74.99
2023-02-27T05:56:29.730Z,74.67
2023-02-27T05:59:36.484Z,74.23
2023-02-27T06:02:36.576Z,72.87
2023-02-27T06:05:36.542Z,72.75
2023-02-27T06:08:36.500Z,72.05
2023-02-27T06:11:36.473Z,71.69
2023-02-27T06:14:36.519Z,71.00
2023-02-27T06:17:36.505Z,70.78
2023-02-27T06:20:36.508Z,70.23
2023-02-27T06:23:36.538Z,69.98
2023-02-27T06:26:36.658Z,70.27
2023-02-27T06:29:36.510Z,69.57
2023-02-27T06:32:36.504Z,69.61
2023-02-27T06:35:36.508Z,69.32
2023-02-27T06:38:36.513Z,69.40
2023-02-27T06:41:38.482Z,69.35
2023-02-27T06:44:38.530Z,69.00
2023-02-27T06:47:38.763Z,68.56
2023-02-27T06:50:38.617Z,68.78
2023-02-27T06:53:39.506Z,68.33
2023-02-27T06:56:44.508Z,68.11
2023-02-27T06:59:45.533Z,67.65
2023-02-27T07:02:45.474Z,67.44
2023-02-27T07:05:45.528Z,66.96
2023-02-27T07:09:01.768Z,66.76
2023-02-27T07:12:05.498Z,66.41
2023-02-27T07:15:05.501Z,65.77
2023-02-27T07:17:58.470Z,65.54
2023-02-27T07:20:44.494Z,64.91
2023-02-27T07:23:44.496Z,64.88
2023-02-27T07:26:44.474Z,64.18
2023-02-27T07:29:44.456Z,64.25
2023-02-27T07:32:46.497Z,64.14
2023-02-27T07:35:46.542Z,64.05
2023-02-27T07:38:47.523Z,63.70
2023-02-27T07:41:47.609Z,63.83
2023-02-27T07:44:48.527Z,63.72
2023-02-27T07:47:52.476Z,63.11
2023-02-27T07:50:52.611Z,63.38
2023-02-27T07:53:52.472Z,63.72
2023-02-27T07:56:52.584Z,64.01
2023-02-27T07:59:52.524Z,63.78
2023-02-27T08:02:52.514Z,63.76
2023-02-27T08:05:52.490Z,63.53
2023-02-27T08:08:52.501Z,63.15
2023-02-27T08:11:52.476Z,63.00
2023-02-27T08:14:52.514Z,63.24
2023-02-27T08:17:52.494Z,62.67
2023-02-27T08:20:52.683Z,62.82
2023-02-27T08:23:45.517Z,62.65
2023-02-27T08:26:32.468Z,62.63
2023-02-27T08:29:32.496Z,62.68
2023-02-27T08:32:32.527Z,62.90
2023-02-27T08:35:32.458Z,62.67
2023-02-27T08:38:32.524Z,62.84
2023-02-27T08:41:32.501Z,62.86
2023-02-27T08:44:33.542Z,62.06
2023-02-27T08:47:33.501Z,62.60
2023-02-27T08:50:33.536Z,61.85
2023-02-27T08:53:33.444Z,62.09
2023-02-27T08:56:33.508Z,62.19
2023-02-27T08:59:33.526Z,62.10
2023-02-27T09:02:33.541Z,61.12
2023-02-27T09:05:34.477Z,61.29
2023-02-27T09:08:34.521Z,60.41
2023-02-27T09:11:34.765Z,60.30
2023-02-27T09:14:35.804Z,60.04
2023-02-27T09:17:46.679Z,59.79
2023-02-27T09:20:49.452Z,59.30
2023-02-27T09:23:49.477Z,59.18
2023-02-27T09:26:49.922Z,59.07
2023-02-27T09:29:49.473Z,59.35
2023-02-27T09:32:49.809Z,59.07
2023-02-27T09:35:49.563Z,59.18
2023-02-27T09:38:49.772Z,57.97
2023-02-27T09:42:06.520Z,58.02
2023-02-27T09:45:09.528Z,58.30
2023-02-27T09:48:43.156Z,58.37
2023-02-27T09:51:44.537Z,57.88
2023-02-27T09:54:39.534Z,57.47
2023-02-27T09:57:51.561Z,57.97
2023-02-27T10:01:26.738Z,58.61
2023-02-27T10:04:53.495Z,59.15
2023-02-27T10:07:54.518Z,58.76
2023-02-27T10:11:06.779Z,58.16
2023-02-27T10:14:29.547Z,57.90
2023-02-27T10:17:36.468Z,57.66
2023-02-27T10:20:41.512Z,57.84
2023-02-27T10:23:49.513Z,57.92
2023-02-27T10:26:56.537Z,57.60
2023-02-27T10:29:59.503Z,57.23
2023-02-27T10:33:01.527Z,57.47
2023-02-27T10:36:03.224Z,57.47
2023-02-27T10:39:07.588Z,57.75
2023-02-27T10:42:07.503Z,57.00
2023-02-27T10:45:07.510Z,57.16
2023-02-27T10:48:08.721Z,57.05
2023-02-27T10:51:39.513Z,56.52
2023-02-27T10:54:42.739Z,56.96
2023-02-27T10:57:53.482Z,57.86
2023-02-27T11:00:59.488Z,57.27
2023-02-27T11:07:09.978Z,57.22
2023-02-27T11:10:37.456Z,57.01
2023-02-27T11:13:38.539Z,56.46
2023-02-27T11:16:39.498Z,56.30
2023-02-27T11:19:52.494Z,56.00
2023-02-27T11:22:52.467Z,55.40
2023-02-27T11:25:52.496Z,54.46
2023-02-27T11:28:52.458Z,55.56
2023-02-27T11:31:52.515Z,54.15
2023-02-27T11:34:54.484Z,54.87
2023-02-27T11:37:54.460Z,54.78
2023-02-27T11:41:03.476Z,54.59
2023-02-27T11:44:04.546Z,54.81
2023-02-27T11:50:23.563Z,54.54
2023-02-27T11:53:56.508Z,54.81
2023-02-27T11:57:00.746Z,55.47
2023-02-27T12:00:04.501Z,55.65
2023-02-27T12:03:20.509Z,55.12
2023-02-27T12:06:30.482Z,55.29
2023-02-27T12:09:52.628Z,55.05
2023-02-27T12:13:05.515Z,54.18
2023-02-27T12:16:05.501Z,54.11
2023-02-27T12:19:10.487Z,54.39
2023-02-27T12:22:17.492Z,53.56
2023-02-27T12:25:20.520Z,53.10
2023-02-27T12:28:32.460Z,52.36
2023-02-27T12:31:35.585Z,52.27
2023-02-27T12:35:02.447Z,52.36
2023-02-27T12:38:02.487Z,51.90
2023-02-27T12:41:29.652Z,52.28
2023-02-27T12:44:52.481Z,52.39
2023-02-27T12:48:29.447Z,52.42
2023-02-27T12:51:39.472Z,53.82
2023-02-27T12:55:08.501Z,54.09
2023-02-27T12:58:52.476Z,54.74
2023-02-27T13:02:05.449Z,55.26
2023-02-27T13:05:17.522Z,55.50
2023-02-27T13:08:30.486Z,55.89
2023-02-27T13:11:51.495Z,56.14
2023-02-27T13:15:11.455Z,56.79
2023-02-27T13:18:17.483Z,57.29
2023-02-27T13:22:06.468Z,57.63
2023-02-27T13:25:09.470Z,58.61
2023-02-27T13:28:14.527Z,58.54
2023-02-27T13:31:20.489Z,58.70
2023-02-27T13:34:35.447Z,59.41
2023-02-27T13:37:35.525Z,58.86
2023-02-27T13:40:47.567Z,59.31
2023-02-27T13:43:52.691Z,60.37
2023-02-27T13:46:52.464Z,59.83
2023-02-27T13:49:58.534Z,60.18
2023-02-27T13:52:58.516Z,59.98
2023-02-27T13:55:58.463Z,60.25
2023-02-27T13:58:59.497Z,60.60
2023-02-27T14:02:10.517Z,60.68
2023-02-27T14:05:11.547Z,60.88
2023-02-27T14:08:22.456Z,62.16
2023-02-27T14:11:31.486Z,62.24
2023-02-27T14:14:50.665Z,62.36
2023-02-27T14:17:54.621Z,62.76
2023-02-27T14:21:03.465Z,63.43
2023-02-27T14:24:03.503Z,63.79
2023-02-27T14:27:06.445Z,63.62
2023-02-27T14:30:10.725Z,63.80
2023-02-27T14:33:40.539Z,63.83
2023-02-27T14:36:45.504Z,63.45
2023-02-27T14:39:50.432Z,63.42
2023-02-27T14:43:13.458Z,64.02
2023-02-27T14:46:24.582Z,64.38
2023-02-27T14:49:35.503Z,65.07
2023-02-27T14:52:38.424Z,65.34
2023-02-27T14:55:46.494Z,65.17
2023-02-27T14:58:52.323Z,65.39
2023-02-27T15:01:58.539Z,64.90
2023-02-27T15:04:59.478Z,65.51
2023-02-27T15:08:00.491Z,65.37
2023-02-27T15:11:00.511Z,65.08
2023-02-27T15:14:02.513Z,65.61
2023-02-27T15:17:07.492Z,65.60
2023-02-27T15:20:12.495Z,65.74
2023-02-27T15:23:14.479Z,65.88
2023-02-27T15:26:14.484Z,65.70
2023-02-27T15:29:14.447Z,66.63
2023-02-27T15:32:15.506Z,66.63
2023-02-27T15:35:18.507Z,66.91
2023-02-27T15:38:19.485Z,67.61
2023-02-27T15:41:19.575Z,67.52
2023-02-27T15:44:19.463Z,68.12
2023-02-27T15:47:20.454Z,68.64
2023-02-27T15:50:26.495Z,68.67
2023-02-27T15:53:29.490Z,69.41
2023-02-27T15:56:29.468Z,68.86
2023-02-27T15:59:30.470Z,68.17
2023-02-27T16:02:34.484Z,68.51
2023-02-27T16:05:40.513Z,69.23
2023-02-27T16:08:41.462Z,68.44
2023-02-27T16:11:43.511Z,68.46
2023-02-27T16:14:59.470Z,68.27
2023-02-27T16:18:06.507Z,68.70
2023-02-27T16:21:06.504Z,69.22
2023-02-27T16:24:07.436Z,68.67
2023-02-27T16:27:08.441Z,68.89
2023-02-27T16:30:11.462Z,69.11
2023-02-27T16:33:14.476Z,69.12
2023-02-27T16:36:33.425Z,68.61
2023-02-27T16:39:33.549Z,68.85
2023-02-27T16:42:33.427Z,69.27
2023-02-27T16:45:36.476Z,69.06
2023-02-27T16:48:36.476Z,69.38
2023-02-27T16:51:38.481Z,70.03
2023-02-27T16:54:38.466Z,69.90
2023-02-27T16:57:38.452Z,70.46
2023-02-27T17:00:38.468Z,70.55
2023-02-27T17:03:39.456Z,70.64
2023-02-27T17:06:39.476Z,70.34
2023-02-27T17:09:39.468Z,70.41
2023-02-27T17:12:39.487Z,70.51
2023-02-27T17:15:39.468Z,70.28
2023-02-27T17:18:39.440Z,70.55
2023-02-27T17:21:39.445Z,70.26
2023-02-27T17:24:39.502Z,70.42
2023-02-27T17:27:39.459Z,70.51
2023-02-27T17:30:39.528Z,70.86
2023-02-27T17:33:39.485Z,70.53
2023-02-27T17:36:39.500Z,70.08
2023-02-27T17:39:40.484Z,70.26
2023-02-27T17:42:40.447Z,69.80
2023-02-27T17:45:40.484Z,69.84
2023-02-27T17:48:40.466Z,69.32
2023-02-27T17:51:42.450Z,69.24
2023-02-27T17:54:42.449Z,69.36
2023-02-27T17:57:42.484Z,69.81
2023-02-27T18:00:42.464Z,69.03
2023-02-27T18:03:42.443Z,69.17
2023-02-27T18:06:42.427Z,68.74
2023-02-27T18:09:42.457Z,68.83
2023-02-27T18:12:42.431Z,68.55
2023-02-27T18:15:42.500Z,68.55
2023-02-27T18:18:42.477Z,68.75
2023-02-27T18:21:42.487Z,68.60
2023-02-27T18:24:42.477Z,68.79
2023-02-27T18:27:42.440Z,68.74
2023-02-27T18:30:43.551Z,68.94
2023-02-27T18:33:43.422Z,68.72
2023-02-27T18:36:43.481Z,68.94
2023-02-27T18:39:43.462Z,69.21
2023-02-27T18:42:43.489Z,69.47
2023-02-27T18:45:43.439Z,69.27
2023-02-27T18:48:43.457Z,69.68
2023-02-27T18:51:43.431Z,69.90
2023-02-27T18:54:43.456Z,69.83
2023-02-27T18:57:43.483Z,70.30
2023-02-27T19:00:43.474Z,70.03
2023-02-27T19:03:43.469Z,70.32
2023-02-27T19:06:47.427Z,70.66
2023-02-27T19:09:47.501Z,70.83
2023-02-27T19:12:47.429Z,71.62
2023-02-27T19:15:47.498Z,71.53
2023-02-27T19:18:47.427Z,72.12
2023-02-27T19:21:47.474Z,71.99
2023-02-27T19:24:47.427Z,72.79
2023-02-27T19:27:40.485Z,72.53
2023-02-27T19:30:27.440Z,73.17
2023-02-27T19:33:27.446Z,73.44
2023-02-27T19:36:29.650Z,73.56
2023-02-27T19:39:29.413Z,73.56
2023-02-27T19:42:29.468Z,74.71
2023-02-27T19:45:29.456Z,74.12
2023-02-27T19:48:29.474Z,74.93
2023-02-27T19:51:29.461Z,75.23
2023-02-27T19:54:29.444Z,74.99
2023-02-27T19:57:29.422Z,75.35
2023-02-27T20:00:30.503Z,74.84
2023-02-27T20:03:30.556Z,74.80
2023-02-27T20:06:32.515Z,74.87
2023-02-27T20:09:33.421Z,75.41
2023-02-27T20:12:33.437Z,75.74
2023-02-27T20:15:33.470Z,75.53
2023-02-27T20:18:34.449Z,75.62
2023-02-27T20:21:36.429Z,75.54
2023-02-27T20:24:36.412Z,75.90
2023-02-27T20:27:36.443Z,76.89
2023-02-27T20:30:36.452Z,76.69
2023-02-27T20:33:36.477Z,76.89
2023-02-27T20:36:36.410Z,77.48
2023-02-27T20:39:36.461Z,77.01
2023-02-27T20:42:36.418Z,77.07
2023-02-27T20:45:36.488Z,77.24
2023-02-27T20:48:36.425Z,77.52
2023-02-27T20:51:37.431Z,77.81
2023-02-27T20:54:37.426Z,77.08
2023-02-27T20:57:37.446Z,77.21
2023-02-27T21:00:37.450Z,77.60
2023-02-27T21:03:43.015Z,77.75
2023-02-27T21:06:42.436Z,77.63
2023-02-27T21:09:42.444Z,78.23
2023-02-27T21:12:42.465Z,78.47
2023-02-27T21:15:42.459Z,78.39
2023-02-27T21:18:42.470Z,78.75
2023-02-27T21:21:44.448Z,78.94
2023-02-27T21:24:44.466Z,78.38
2023-02-27T21:27:44.418Z,78.88
2023-02-27T21:30:44.581Z,78.92
2023-02-27T21:33:44.437Z,80.09
2023-02-27T21:36:49.433Z,80.33
2023-02-27T21:39:42.464Z,81.13
2023-02-27T21:42:28.419Z,81.14
2023-02-27T21:45:28.476Z,82.02
2023-02-27T21:48:28.404Z,82.35
2023-02-27T21:51:39.445Z,83.12
2023-02-27T21:54:40.466Z,83.53
2023-02-27T21:57:40.433Z,84.47
2023-02-27T22:00:40.490Z,84.28
2023-02-27T22:03:41.437Z,85.01
2023-02-27T22:06:43.409Z,85.07
2023-02-27T22:09:43.427Z,85.49
2023-02-27T22:12:43.467Z,85.52
2023-02-27T22:15:43.454Z,85.76
2023-02-27T22:18:43.449Z,85.83
2023-02-27T22:21:43.452Z,85.71
2023-02-27T22:24:43.409Z,86.22
2023-02-27T22:27:43.475Z,86.27
2023-02-27T22:30:43.454Z,86.82
2023-02-27T22:33:43.424Z,87.06
2023-02-27T22:36:45.463Z,87.49
2023-02-27T22:39:45.430Z,87.57
2023-02-27T22:42:45.466Z,88.33
2023-02-27T22:45:45.443Z,88.47
2023-02-27T22:48:45.467Z,89.75
2023-02-27T22:51:45.456Z,88.96
2023-02-27T22:54:45.429Z,89.30
2023-02-27T22:57:45.447Z,89.60
2023-02-27T23:00:45.451Z,89.34
2023-02-27T23:03:45.478Z,89.67
2023-02-27T23:06:47.436Z,90.29
2023-02-27T23:09:47.428Z,90.91
2023-02-27T23:12:47.426Z,90.84
2023-02-27T23:15:48.425Z,90.82
2023-02-27T23:18:48.409Z,91.39
2023-02-27T23:21:49.409Z,91.72
2023-02-27T23:24:49.437Z,91.95
2023-02-27T23:27:49.460Z,91.65
2023-02-27T23:30:49.423Z,92.16
2023-02-27T23:33:49.437Z,92.47
2023-02-27T23:36:50.419Z,92.32
2023-02-27T23:39:50.403Z,92.27
2023-02-27T23:42:50.410Z,92.02
2023-02-27T23:45:50.499Z,92.92
2023-02-27T23:48:50.427Z,92.63
2023-02-27T23:51:50.406Z,92.39
2023-02-27T23:54:50.455Z,90.78
2023-02-27T23:57:50.437Z,90.41
